sensor_id;sensor_type;location;lat;lon;timestamp;temperature;humidity
16128;DHT22;8168;49.036;7.690;2024-01-30T00:19:30;1.50;99.90
16128;DHT22;8168;49.036;7.690;2024-01-30T00:22:00;1.50;99.90
16128;DHT22;8168;49.036;7.690;2024-01-30T00:24:31;1.50;99.90
16128;DHT22;8168;49.036;7.690;2024-01-30T00:27:02;1.50;99.90
16128;DHT22;8168;49.036;7.690;2024-01-30T00:29:32;1.40;99.90
16128;DHT22;8168;49.036;7.690;2024-01-30T00:32:04;1.40;99.90
16128;DHT22;8168;49.036;7.690;2024-01-30T00:34:35;1.40;99.90
16128;DHT22;8168;49.036;7.690;2024-01-30T00:37:05;1.40;99.90
16128;DHT22;8168;49.036;7.690;2024-01-30T00:39:36;1.30;99.90
16128;DHT22;8168;49.036;7.690;2024-01-30T00:42:06;1.30;99.90
16128;DHT22;8168;49.036;7.690;2024-01-30T00:44:37;1.30;99.90
16128;DHT22;8168;49.036;7.690;2024-01-30T00:47:09;1.20;99.90
16128;DHT22;8168;49.036;7.690;2024-01-30T00:54:42;1.10;99.90
16128;DHT22;8168;49.036;7.690;2024-01-30T00:57:12;1.10;99.90
16128;DHT22;8168;49.036;7.690;2024-01-30T01:17:22;1.10;99.90
16128;DHT22;8168;49.036;7.690;2024-01-30T01:19:53;1.00;99.90
16128;DHT22;8168;49.036;7.690;2024-01-30T01:22:23;1.00;99.90
16128;DHT22;8168;49.036;7.690;2024-01-30T01:24:54;1.00;99.90
16128;DHT22;8168;49.036;7.690;2024-01-30T01:27:25;1.00;99.90
16128;DHT22;8168;49.036;7.690;2024-01-30T01:29:55;1.00;99.90
16128;DHT22;8168;49.036;7.690;2024-01-30T01:32:26;1.10;99.90
16128;DHT22;8168;49.036;7.690;2024-01-30T01:34:57;1.00;99.90
16128;DHT22;8168;49.036;7.690;2024-01-30T01:37:27;1.10;99.90
16128;DHT22;8168;49.036;7.690;2024-01-30T01:39:58;1.10;99.90
16128;DHT22;8168;49.036;7.690;2024-01-30T01:42:29;1.00;99.90
16128;DHT22;8168;49.036;7.690;2024-01-30T01:44:59;1.00;99.90
16128;DHT22;8168;49.036;7.690;2024-01-30T01:47:30;1.00;99.90
16128;DHT22;8168;49.036;7.690;2024-01-30T01:50:01;1.00;99.90
16128;DHT22;8168;49.036;7.690;2024-01-30T01:52:31;1.00;99.90
16128;DHT22;8168;49.036;7.690;2024-01-30T01:55:02;0.90;99.90
16128;DHT22;8168;49.036;7.690;2024-01-30T01:57:34;0.90;99.90
16128;DHT22;8168;49.036;7.690;2024-01-30T02:00:05;0.90;99.90
16128;DHT22;8168;49.036;7.690;2024-01-30T02:02:36;0.80;99.90
16128;DHT22;8168;49.036;7.690;2024-01-30T02:05:08;0.80;99.90
16128;DHT22;8168;49.036;7.690;2024-01-30T02:07:39;0.80;99.90
16128;DHT22;8168;49.036;7.690;2024-01-30T02:10:10;0.80;99.90
16128;DHT22;8168;49.036;7.690;2024-01-30T02:12:41;0.80;99.90
16128;DHT22;8168;49.036;7.690;2024-01-30T02:15:13;0.80;99.90
16128;DHT22;8168;49.036;7.690;2024-01-30T02:17:44;0.80;99.90
16128;DHT22;8168;49.036;7.690;2024-01-30T02:20:15;0.80;99.90
16128;DHT22;8168;49.036;7.690;2024-01-30T02:22:46;0.80;99.90
16128;DHT22;8168;49.036;7.690;2024-01-30T02:25:17;0.80;99.90
16128;DHT22;8168;49.036;7.690;2024-01-30T02:27:47;0.70;99.90
16128;DHT22;8168;49.036;7.690;2024-01-30T02:30:18;0.70;99.90
16128;DHT22;8168;49.036;7.690;2024-01-30T02:32:49;0.80;99.90
16128;DHT22;8168;49.036;7.690;2024-01-30T02:35:19;0.70;99.90
16128;DHT22;8168;49.036;7.690;2024-01-30T02:37:50;0.70;99.90
16128;DHT22;8168;49.036;7.690;2024-01-30T02:40:20;0.60;99.90
16128;DHT22;8168;49.036;7.690;2024-01-30T02:42:51;0.60;99.90
16128;DHT22;8168;49.036;7.690;2024-01-30T02:45:22;0.70;99.90
16128;DHT22;8168;49.036;7.690;2024-01-30T02:47:52;0.70;99.90
16128;DHT22;8168;49.036;7.690;2024-01-30T02:50:23;0.60;99.90
16128;DHT22;8168;49.036;7.690;2024-01-30T02:52:53;0.70;99.90
16128;DHT22;8168;49.036;7.690;2024-01-30T02:55:24;0.60;99.90
16128;DHT22;8168;49.036;7.690;2024-01-30T02:57:55;0.60;99.90
16128;DHT22;8168;49.036;7.690;2024-01-30T03:00:25;0.60;99.90
16128;DHT22;8168;49.036;7.690;2024-01-30T03:02:56;0.70;99.90
16128;DHT22;8168;49.036;7.690;2024-01-30T03:05:27;0.60;99.90
16128;DHT22;8168;49.036;7.690;2024-01-30T03:07:57;0.60;99.90
16128;DHT22;8168;49.036;7.690;2024-01-30T03:10:28;0.70;99.90
16128;DHT22;8168;49.036;7.690;2024-01-30T03:12:58;0.60;99.90
16128;DHT22;8168;49.036;7.690;2024-01-30T03:15:29;0.60;99.90
16128;DHT22;8168;49.036;7.690;2024-01-30T03:18:00;0.60;99.90
16128;DHT22;8168;49.036;7.690;2024-01-30T03:20:30;0.50;99.90
16128;DHT22;8168;49.036;7.690;2024-01-30T03:23:01;0.50;99.90
16128;DHT22;8168;49.036;7.690;2024-01-30T03:25:33;0.50;99.90
16128;DHT22;8168;49.036;7.690;2024-01-30T03:28:04;0.50;99.90
16128;DHT22;8168;49.036;7.690;2024-01-30T03:30:34;0.50;99.90
16128;DHT22;8168;49.036;7.690;2024-01-30T03:33:05;0.50;99.90
16128;DHT22;8168;49.036;7.690;2024-01-30T03:35:36;0.40;99.90
16128;DHT22;8168;49.036;7.690;2024-01-30T03:38:06;0.40;99.90
16128;DHT22;8168;49.036;7.690;2024-01-30T03:40:37;0.40;99.90
16128;DHT22;8168;49.036;7.690;2024-01-30T03:43:08;0.40;99.90
16128;DHT22;8168;49.036;7.690;2024-01-30T03:45:38;0.40;99.90
16128;DHT22;8168;49.036;7.690;2024-01-30T03:48:09;0.30;99.90
16128;DHT22;8168;49.036;7.690;2024-01-30T03:50:39;0.50;99.90
16128;DHT22;8168;49.036;7.690;2024-01-30T03:53:10;0.30;99.90
16128;DHT22;8168;49.036;7.690;2024-01-30T03:55:41;0.30;99.90
16128;DHT22;8168;49.036;7.690;2024-01-30T03:58:11;0.40;99.90
16128;DHT22;8168;49.036;7.690;2024-01-30T04:00:42;0.20;99.90
16128;DHT22;8168;49.036;7.690;2024-01-30T04:03:14;0.10;99.90
16128;DHT22;8168;49.036;7.690;2024-01-30T04:05:45;0.10;99.90
16128;DHT22;8168;49.036;7.690;2024-01-30T04:20:56;0.00;99.90
16128;DHT22;8168;49.036;7.690;2024-01-30T04:28:29;0.00;99.90
16128;DHT22;8168;49.036;7.690;2024-01-30T04:38:34;0.10;99.90
16128;DHT22;8168;49.036;7.690;2024-01-30T04:41:04;0.10;99.90
16128;DHT22;8168;49.036;7.690;2024-01-30T04:58:41;0.10;99.90
16128;DHT22;8168;49.036;7.690;2024-01-30T05:01:18;0.10;99.90
16128;DHT22;8168;49.036;7.690;2024-01-30T05:03:49;0.10;99.90
16128;DHT22;8168;49.036;7.690;2024-01-30T05:06:26;0.10;99.90
16128;DHT22;8168;49.036;7.690;2024-01-30T05:29:06;0.10;99.90
16128;DHT22;8168;49.036;7.690;2024-01-30T05:31:38;0.10;99.90
16128;DHT22;8168;49.036;7.690;2024-01-30T06:19:29;-0.10;99.90
16128;DHT22;8168;49.036;7.690;2024-01-30T06:22:00;0.00;99.90
16128;DHT22;8168;49.036;7.690;2024-01-30T06:27:02;-0.10;99.90
16128;DHT22;8168;49.036;7.690;2024-01-30T06:29:32;0.00;99.90
16128;DHT22;8168;49.036;7.690;2024-01-30T06:32:03;0.00;99.90
16128;DHT22;8168;49.036;7.690;2024-01-30T06:47:10;-0.10;99.90
16128;DHT22;8168;49.036;7.690;2024-01-30T06:59:47;-0.20;99.90
16128;DHT22;8168;49.036;7.690;2024-01-30T07:07:20;-0.20;99.90
16128;DHT22;8168;49.036;7.690;2024-01-30T07:14:57;-0.20;99.90
16128;DHT22;8168;49.036;7.690;2024-01-30T07:17:29;-0.20;99.90
16128;DHT22;8168;49.036;7.690;2024-01-30T07:25:05;-0.20;99.90
16128;DHT22;8168;49.036;7.690;2024-01-30T07:27:36;-0.10;99.90
16128;DHT22;8168;49.036;7.690;2024-01-30T07:30:07;-0.10;99.90
16128;DHT22;8168;49.036;7.690;2024-01-30T07:35:08;-0.10;99.90
16128;DHT22;8168;49.036;7.690;2024-01-30T07:37:39;-0.10;99.90
16128;DHT22;8168;49.036;7.690;2024-01-30T07:40:10;-0.10;99.90
16128;DHT22;8168;49.036;7.690;2024-01-30T07:42:43;0.00;99.90
16128;DHT22;8168;49.036;7.690;2024-01-30T07:47:45;0.10;99.90
16128;DHT22;8168;49.036;7.690;2024-01-30T07:50:16;0.10;99.90
16128;DHT22;8168;49.036;7.690;2024-01-30T07:55:21;0.10;99.90
16128;DHT22;8168;49.036;7.690;2024-01-30T08:00:31;0.20;99.90
16128;DHT22;8168;49.036;7.690;2024-01-30T08:03:02;0.20;99.90
16128;DHT22;8168;49.036;7.690;2024-01-30T08:05:33;0.30;99.90
16128;DHT22;8168;49.036;7.690;2024-01-30T08:08:04;0.30;99.90
16128;DHT22;8168;49.036;7.690;2024-01-30T08:10:34;0.30;99.90
16128;DHT22;8168;49.036;7.690;2024-01-30T08:13:05;0.40;99.90
16128;DHT22;8168;49.036;7.690;2024-01-30T08:15:36;0.40;99.90
16128;DHT22;8168;49.036;7.690;2024-01-30T08:18:06;0.40;99.90
16128;DHT22;8168;49.036;7.690;2024-01-30T08:20:37;0.40;99.90
16128;DHT22;8168;49.036;7.690;2024-01-30T08:23:08;0.50;99.90
16128;DHT22;8168;49.036;7.690;2024-01-30T08:28:09;0.60;99.90
16128;DHT22;8168;49.036;7.690;2024-01-30T08:35:42;0.60;99.90
16128;DHT22;8168;49.036;7.690;2024-01-30T08:38:13;0.70;99.90
16128;DHT22;8168;49.036;7.690;2024-01-30T08:40:44;0.70;99.90
16128;DHT22;8168;49.036;7.690;2024-01-30T08:43:15;0.80;99.90
16128;DHT22;8168;49.036;7.690;2024-01-30T08:45:46;0.80;99.90
16128;DHT22;8168;49.036;7.690;2024-01-30T08:48:16;0.80;99.90
16128;DHT22;8168;49.036;7.690;2024-01-30T08:50:48;0.80;99.90
16128;DHT22;8168;49.036;7.690;2024-01-30T08:53:18;0.80;99.90
16128;DHT22;8168;49.036;7.690;2024-01-30T08:55:49;1.00;99.90
16128;DHT22;8168;49.036;7.690;2024-01-30T08:58:20;1.00;99.90
16128;DHT22;8168;49.036;7.690;2024-01-30T09:00:50;1.00;99.90
16128;DHT22;8168;49.036;7.690;2024-01-30T09:03:22;1.00;99.90
16128;DHT22;8168;49.036;7.690;2024-01-30T09:05:52;1.10;99.90
16128;DHT22;8168;49.036;7.690;2024-01-30T09:08:23;1.10;99.90
16128;DHT22;8168;49.036;7.690;2024-01-30T09:10:54;1.30;99.90
16128;DHT22;8168;49.036;7.690;2024-01-30T09:13:25;1.20;99.90
16128;DHT22;8168;49.036;7.690;2024-01-30T09:15:55;1.40;99.90
16128;DHT22;8168;49.036;7.690;2024-01-30T09:18:26;1.30;99.90
16128;DHT22;8168;49.036;7.690;2024-01-30T09:20:57;1.50;99.90
16128;DHT22;8168;49.036;7.690;2024-01-30T09:23:28;1.50;99.90
16128;DHT22;8168;49.036;7.690;2024-01-30T09:28:29;1.40;99.90
16128;DHT22;8168;49.036;7.690;2024-01-30T09:31:00;1.50;99.90
16128;DHT22;8168;49.036;7.690;2024-01-30T09:33:31;1.50;99.90
16128;DHT22;8168;49.036;7.690;2024-01-30T09:36:01;1.60;99.90
16128;DHT22;8168;49.036;7.690;2024-01-30T09:38:32;1.70;99.90
16128;DHT22;8168;49.036;7.690;2024-01-30T09:41:05;1.70;99.90
16128;DHT22;8168;49.036;7.690;2024-01-30T09:43:39;1.70;99.90
16128;DHT22;8168;49.036;7.690;2024-01-30T09:46:14;1.70;99.90
16128;DHT22;8168;49.036;7.690;2024-01-30T09:48:47;1.80;99.90
16128;DHT22;8168;49.036;7.690;2024-01-30T09:51:18;1.90;99.90
16128;DHT22;8168;49.036;7.690;2024-01-30T09:53:49;2.00;99.90
16128;DHT22;8168;49.036;7.690;2024-01-30T09:56:21;2.10;99.90
16128;DHT22;8168;49.036;7.690;2024-01-30T10:08:56;2.40;99.90
16128;DHT22;8168;49.036;7.690;2024-01-30T10:11:27;2.50;99.90
16128;DHT22;8168;49.036;7.690;2024-01-30T10:18:59;2.70;99.90
16128;DHT22;8168;49.036;7.690;2024-01-30T10:21:30;2.80;99.90
16128;DHT22;8168;49.036;7.690;2024-01-30T10:24:01;2.70;99.90
16128;DHT22;8168;49.036;7.690;2024-01-30T10:26:31;3.00;99.90
16128;DHT22;8168;49.036;7.690;2024-01-30T10:29:04;3.00;99.90
16128;DHT22;8168;49.036;7.690;2024-01-30T10:31:35;3.20;99.90
16128;DHT22;8168;49.036;7.690;2024-01-30T10:34:06;3.20;99.90
16128;DHT22;8168;49.036;7.690;2024-01-30T10:36:40;3.20;99.90
16128;DHT22;8168;49.036;7.690;2024-01-30T10:39:15;3.20;99.90
16128;DHT22;8168;49.036;7.690;2024-01-30T10:44:19;3.40;99.90
16128;DHT22;8168;49.036;7.690;2024-01-30T10:47:04;3.50;99.90
16128;DHT22;8168;49.036;7.690;2024-01-30T10:49:37;3.60;99.90
16128;DHT22;8168;49.036;7.690;2024-01-30T10:52:08;3.60;99.90
16128;DHT22;8168;49.036;7.690;2024-01-30T10:54:40;7.00;99.90
16128;DHT22;8168;49.036;7.690;2024-01-30T10:57:12;3.80;99.90
16128;DHT22;8168;49.036;7.690;2024-01-30T10:59:44;3.80;99.90
16128;DHT22;8168;49.036;7.690;2024-01-30T11:02:16;3.90;99.90
16128;DHT22;8168;49.036;7.690;2024-01-30T11:04:47;3.90;99.90
16128;DHT22;8168;49.036;7.690;2024-01-30T11:07:19;3.90;99.90
16128;DHT22;8168;49.036;7.690;2024-01-30T11:10:00;4.00;99.90
16128;DHT22;8168;49.036;7.690;2024-01-30T11:12:32;4.10;99.90
16128;DHT22;8168;49.036;7.690;2024-01-30T11:15:04;4.20;99.90
16128;DHT22;8168;49.036;7.690;2024-01-30T11:20:37;4.40;99.90
16128;DHT22;8168;49.036;7.690;2024-01-30T11:23:07;4.40;99.90
16128;DHT22;8168;49.036;7.690;2024-01-30T11:25:38;4.40;99.90
16128;DHT22;8168;49.036;7.690;2024-01-30T11:28:16;4.50;99.90
16128;DHT22;8168;49.036;7.690;2024-01-30T11:30:47;4.50;99.90
16128;DHT22;8168;49.036;7.690;2024-01-30T11:33:28;4.60;99.90
16128;DHT22;8168;49.036;7.690;2024-01-30T11:36:01;4.70;99.90
16128;DHT22;8168;49.036;7.690;2024-01-30T11:38:32;4.70;99.90
16128;DHT22;8168;49.036;7.690;2024-01-30T11:41:03;4.80;99.90
16128;DHT22;8168;49.036;7.690;2024-01-30T11:43:34;4.90;99.90
16128;DHT22;8168;49.036;7.690;2024-01-30T11:46:07;5.00;99.90
16128;DHT22;8168;49.036;7.690;2024-01-30T11:48:37;5.10;99.90
16128;DHT22;8168;49.036;7.690;2024-01-30T11:51:08;5.10;99.90
16128;DHT22;8168;49.036;7.690;2024-01-30T11:53:39;5.10;99.90
16128;DHT22;8168;49.036;7.690;2024-01-30T11:56:09;5.30;99.90
16128;DHT22;8168;49.036;7.690;2024-01-30T11:58:43;5.30;99.90
16128;DHT22;8168;49.036;7.690;2024-01-30T12:01:17;5.30;99.90
16128;DHT22;8168;49.036;7.690;2024-01-30T12:03:50;5.40;99.90
16128;DHT22;8168;49.036;7.690;2024-01-30T12:06:21;5.50;99.90
16128;DHT22;8168;49.036;7.690;2024-01-30T12:08:59;5.50;99.90
16128;DHT22;8168;49.036;7.690;2024-01-30T12:11:30;5.60;99.90
16128;DHT22;8168;49.036;7.690;2024-01-30T12:14:01;5.60;99.90
16128;DHT22;8168;49.036;7.690;2024-01-30T12:16:32;5.60;99.90
16128;DHT22;8168;49.036;7.690;2024-01-30T12:19:02;5.70;99.90
16128;DHT22;8168;49.036;7.690;2024-01-30T12:21:34;5.80;99.90
16128;DHT22;8168;49.036;7.690;2024-01-30T12:24:05;5.90;99.90
16128;DHT22;8168;49.036;7.690;2024-01-30T12:26:37;6.00;99.90
16128;DHT22;8168;49.036;7.690;2024-01-30T12:29:08;6.10;99.90
16128;DHT22;8168;49.036;7.690;2024-01-30T12:31:42;6.10;99.90
16128;DHT22;8168;49.036;7.690;2024-01-30T12:34:15;6.20;99.90
16128;DHT22;8168;49.036;7.690;2024-01-30T12:36:48;6.30;99.90
16128;DHT22;8168;49.036;7.690;2024-01-30T12:39:19;6.50;99.90
16128;DHT22;8168;49.036;7.690;2024-01-30T12:41:50;6.60;99.90
16128;DHT22;8168;49.036;7.690;2024-01-30T12:44:22;6.80;99.90
16128;DHT22;8168;49.036;7.690;2024-01-30T12:46:52;6.90;99.90
16128;DHT22;8168;49.036;7.690;2024-01-30T12:49:23;7.00;99.90
16128;DHT22;8168;49.036;7.690;2024-01-30T12:51:53;7.30;99.90
16128;DHT22;8168;49.036;7.690;2024-01-30T12:54:24;7.50;99.90
16128;DHT22;8168;49.036;7.690;2024-01-30T12:56:55;7.70;99.90
16128;DHT22;8168;49.036;7.690;2024-01-30T12:59:26;7.90;99.90
16128;DHT22;8168;49.036;7.690;2024-01-30T13:01:59;8.00;99.90
16128;DHT22;8168;49.036;7.690;2024-01-30T13:04:30;8.10;99.90
16128;DHT22;8168;49.036;7.690;2024-01-30T13:07:01;8.30;99.90
16128;DHT22;8168;49.036;7.690;2024-01-30T13:09:32;8.40;99.90
16128;DHT22;8168;49.036;7.690;2024-01-30T13:12:03;8.50;99.90
16128;DHT22;8168;49.036;7.690;2024-01-30T13:14:33;8.60;99.90
16128;DHT22;8168;49.036;7.690;2024-01-30T13:17:04;8.70;99.90
16128;DHT22;8168;49.036;7.690;2024-01-30T13:19:35;8.70;99.90
16128;DHT22;8168;49.036;7.690;2024-01-30T13:22:06;8.60;99.90
16128;DHT22;8168;49.036;7.690;2024-01-30T13:24:36;8.50;99.90
16128;DHT22;8168;49.036;7.690;2024-01-30T13:27:07;8.50;99.90
16128;DHT22;8168;49.036;7.690;2024-01-30T13:29:39;8.60;99.90
16128;DHT22;8168;49.036;7.690;2024-01-30T13:32:09;8.60;99.90
16128;DHT22;8168;49.036;7.690;2024-01-30T13:34:41;8.70;99.90
16128;DHT22;8168;49.036;7.690;2024-01-30T13:37:11;8.80;99.90
16128;DHT22;8168;49.036;7.690;2024-01-30T13:39:42;8.90;99.90
16128;DHT22;8168;49.036;7.690;2024-01-30T13:42:13;9.00;99.90
16128;DHT22;8168;49.036;7.690;2024-01-30T13:44:43;9.10;99.90
16128;DHT22;8168;49.036;7.690;2024-01-30T13:47:14;9.20;99.90
16128;DHT22;8168;49.036;7.690;2024-01-30T13:49:45;9.30;99.90
16128;DHT22;8168;49.036;7.690;2024-01-30T13:52:15;9.40;99.90
16128;DHT22;8168;49.036;7.690;2024-01-30T13:54:46;9.50;99.90
16128;DHT22;8168;49.036;7.690;2024-01-30T13:57:16;9.60;99.90
16128;DHT22;8168;49.036;7.690;2024-01-30T13:59:47;9.70;99.90
16128;DHT22;8168;49.036;7.690;2024-01-30T14:02:18;9.70;99.90
16128;DHT22;8168;49.036;7.690;2024-01-30T14:04:48;9.80;99.90
16128;DHT22;8168;49.036;7.690;2024-01-30T14:07:19;9.90;99.90
16128;DHT22;8168;49.036;7.690;2024-01-30T14:09:50;9.90;99.90
16128;DHT22;8168;49.036;7.690;2024-01-30T14:12:20;10.00;99.90
16128;DHT22;8168;49.036;7.690;2024-01-30T14:14:51;10.00;99.90
16128;DHT22;8168;49.036;7.690;2024-01-30T14:17:21;10.10;99.90
16128;DHT22;8168;49.036;7.690;2024-01-30T14:19:52;10.10;99.90
16128;DHT22;8168;49.036;7.690;2024-01-30T14:22:23;10.10;99.90
16128;DHT22;8168;49.036;7.690;2024-01-30T14:24:53;10.20;99.90
16128;DHT22;8168;49.036;7.690;2024-01-30T14:27:24;10.10;99.90
16128;DHT22;8168;49.036;7.690;2024-01-30T14:29:56;10.20;99.90
16128;DHT22;8168;49.036;7.690;2024-01-30T14:32:26;10.20;99.90
16128;DHT22;8168;49.036;7.690;2024-01-30T14:34:57;10.20;99.90
16128;DHT22;8168;49.036;7.690;2024-01-30T14:37:28;10.20;99.90
16128;DHT22;8168;49.036;7.690;2024-01-30T14:40:00;10.20;99.90
16128;DHT22;8168;49.036;7.690;2024-01-30T14:42:31;10.20;99.90
16128;DHT22;8168;49.036;7.690;2024-01-30T14:45:03;10.20;99.90
16128;DHT22;8168;49.036;7.690;2024-01-30T14:47:37;10.20;99.90
16128;DHT22;8168;49.036;7.690;2024-01-30T14:50:08;9.90;99.90
16128;DHT22;8168;49.036;7.690;2024-01-30T14:52:39;10.10;99.90
16128;DHT22;8168;49.036;7.690;2024-01-30T14:55:10;10.10;99.90
16128;DHT22;8168;49.036;7.690;2024-01-30T14:57:41;10.10;99.90
16128;DHT22;8168;49.036;7.690;2024-01-30T15:00:13;10.10;99.90
16128;DHT22;8168;49.036;7.690;2024-01-30T15:02:46;10.00;99.90
16128;DHT22;8168;49.036;7.690;2024-01-30T15:05:17;10.00;99.90
16128;DHT22;8168;49.036;7.690;2024-01-30T15:07:47;10.10;99.90
16128;DHT22;8168;49.036;7.690;2024-01-30T15:10:18;10.10;99.90
16128;DHT22;8168;49.036;7.690;2024-01-30T15:12:49;10.00;99.90
16128;DHT22;8168;49.036;7.690;2024-01-30T15:15:19;9.90;99.90
16128;DHT22;8168;49.036;7.690;2024-01-30T15:17:50;9.90;99.90
16128;DHT22;8168;49.036;7.690;2024-01-30T15:20:21;9.90;99.90
16128;DHT22;8168;49.036;7.690;2024-01-30T15:22:51;9.90;99.90
16128;DHT22;8168;49.036;7.690;2024-01-30T15:25:22;9.90;99.90
16128;DHT22;8168;49.036;7.690;2024-01-30T15:27:52;9.80;99.90
16128;DHT22;8168;49.036;7.690;2024-01-30T15:30:23;9.80;99.90
16128;DHT22;8168;49.036;7.690;2024-01-30T15:32:54;9.80;99.90
16128;DHT22;8168;49.036;7.690;2024-01-30T15:35:24;9.80;99.90
16128;DHT22;8168;49.036;7.690;2024-01-30T15:37:55;9.70;99.90
16128;DHT22;8168;49.036;7.690;2024-01-30T15:40:25;9.60;99.90
16128;DHT22;8168;49.036;7.690;2024-01-30T15:42:56;9.60;99.90
16128;DHT22;8168;49.036;7.690;2024-01-30T15:45:27;9.40;99.90
16128;DHT22;8168;49.036;7.690;2024-01-30T15:47:57;9.20;99.90
16128;DHT22;8168;49.036;7.690;2024-01-30T15:58:03;9.10;99.90
16128;DHT22;8168;49.036;7.690;2024-01-30T16:00:34;9.00;99.90
16128;DHT22;8168;49.036;7.690;2024-01-30T16:05:36;8.90;99.90
16128;DHT22;8168;49.036;7.690;2024-01-30T16:18:13;8.90;99.90
16128;DHT22;8168;49.036;7.690;2024-01-30T16:28:18;9.00;99.90
16128;DHT22;8168;49.036;7.690;2024-01-30T16:35:51;9.00;99.90
16128;DHT22;8168;49.036;7.690;2024-01-30T16:48:29;8.70;99.90
16128;DHT22;8168;49.036;7.690;2024-01-30T17:08:39;8.40;99.90
16128;DHT22;8168;49.036;7.690;2024-01-30T17:21:21;8.00;99.90
16128;DHT22;8168;49.036;7.690;2024-01-30T17:38:58;7.70;99.90
16128;DHT22;8168;49.036;7.690;2024-01-30T17:44:02;7.60;99.90
16128;DHT22;8168;49.036;7.690;2024-01-30T17:46:34;7.60;99.90
16128;DHT22;8168;49.036;7.690;2024-01-30T17:51:39;7.50;99.90
16128;DHT22;8168;49.036;7.690;2024-01-30T17:54:10;7.40;99.90
16128;DHT22;8168;49.036;7.690;2024-01-30T18:01:46;7.30;99.90
16128;DHT22;8168;49.036;7.690;2024-01-30T18:04:18;7.40;99.90
16128;DHT22;8168;49.036;7.690;2024-01-30T18:06:50;7.30;99.90
16128;DHT22;8168;49.036;7.690;2024-01-30T18:09:21;7.30;99.90
16128;DHT22;8168;49.036;7.690;2024-01-30T18:19:25;7.10;99.90
16128;DHT22;8168;49.036;7.690;2024-01-30T18:21:56;7.00;99.90
16128;DHT22;8168;49.036;7.690;2024-01-30T18:37:02;6.90;99.90
16128;DHT22;8168;49.036;7.690;2024-01-30T18:42:04;6.90;99.90
16128;DHT22;8168;49.036;7.690;2024-01-30T19:09:46;6.60;99.90
16128;DHT22;8168;49.036;7.690;2024-01-30T19:19:54;6.50;99.90
16128;DHT22;8168;49.036;7.690;2024-01-30T19:27:27;6.40;99.90
16128;DHT22;8168;49.036;7.690;2024-01-30T19:29:58;6.40;99.90
16128;DHT22;8168;49.036;7.690;2024-01-30T19:35:00;6.50;99.90
16128;DHT22;8168;49.036;7.690;2024-01-30T19:40:05;6.60;99.90
16128;DHT22;8168;49.036;7.690;2024-01-30T19:42:36;6.60;99.90
16128;DHT22;8168;49.036;7.690;2024-01-30T19:45:08;6.60;99.90
16128;DHT22;8168;49.036;7.690;2024-01-30T19:47:40;6.60;99.90
16128;DHT22;8168;49.036;7.690;2024-01-30T20:02:47;6.60;99.90
16128;DHT22;8168;49.036;7.690;2024-01-30T20:10:20;6.60;99.90
16128;DHT22;8168;49.036;7.690;2024-01-30T20:17:53;6.70;99.90
16128;DHT22;8168;49.036;7.690;2024-01-30T20:20:24;6.60;99.90
16128;DHT22;8168;49.036;7.690;2024-01-30T20:48:07;6.70;99.90
16128;DHT22;8168;49.036;7.690;2024-01-30T21:20:52;6.70;99.90
16128;DHT22;8168;49.036;7.690;2024-01-30T21:28:28;6.70;99.90
16128;DHT22;8168;49.036;7.690;2024-01-30T21:36:02;6.80;99.90
16128;DHT22;8168;49.036;7.690;2024-01-30T21:38:33;6.80;99.90
16128;DHT22;8168;49.036;7.690;2024-01-30T21:41:05;6.80;99.90
16128;DHT22;8168;49.036;7.690;2024-01-30T21:48:38;6.80;99.90
16128;DHT22;8168;49.036;7.690;2024-01-30T22:01:14;6.80;99.90
16128;DHT22;8168;49.036;7.690;2024-01-30T22:06:19;6.80;99.90
16128;DHT22;8168;49.036;7.690;2024-01-30T22:21:25;6.80;99.90
16128;DHT22;8168;49.036;7.690;2024-01-30T22:23:56;6.80;99.90
16128;DHT22;8168;49.036;7.690;2024-01-30T22:39:03;6.80;99.90
16128;DHT22;8168;49.036;7.690;2024-01-30T23:06:54;6.80;99.90
16128;DHT22;8168;49.036;7.690;2024-01-30T23:32:05;6.80;99.90
16128;DHT22;8168;49.036;7.690;2024-01-30T23:44:41;6.80;99.90
16128;DHT22;8168;49.036;7.690;2024-01-30T23:52:16;6.90;99.90
